createdAt,value
2022-09-09T00:01:56.199Z,98.96
2022-09-09T00:04:29.995Z,98.85
2022-09-09T00:07:06.811Z,98.58
2022-09-09T00:09:46.273Z,98.81
2022-09-09T00:12:19.236Z,98.27
2022-09-09T00:14:53.577Z,98.33
2022-09-09T00:17:35.598Z,98.58
2022-09-09T00:20:14.046Z,98.49
2022-09-09T00:22:48.448Z,98.04
2022-09-09T00:25:24.159Z,98.20
2022-09-09T00:27:53.441Z,98.16
2022-09-09T00:30:25.121Z,97.88
2022-09-09T00:32:59.172Z,97.60
2022-09-09T00:35:32.152Z,97.99
2022-09-09T00:38:11.493Z,98.58
2022-09-09T00:40:50.977Z,98.95
2022-09-09T00:43:32.501Z,99.30
2022-09-09T00:46:42.144Z,99.51
2022-09-09T00:49:24.040Z,99.60
2022-09-09T00:52:06.302Z,99.65
2022-09-09T00:54:46.746Z,99.44
2022-09-09T00:57:29.128Z,99.55
2022-09-09T01:00:21.897Z,100.00
2022-09-09T01:03:13.260Z,99.67
2022-09-09T01:05:51.831Z,99.99
2022-09-09T01:08:40.409Z,99.98
2022-09-09T01:11:17.936Z,99.70
2022-09-09T01:13:49.134Z,99.46
2022-09-09T01:16:18.917Z,99.74
2022-09-09T01:18:51.658Z,99.77
2022-09-09T01:21:32.038Z,99.72
2022-09-09T01:24:22.487Z,100.00
2022-09-09T01:27:09.856Z,99.81
2022-09-09T01:29:38.692Z,100.00
2022-09-09T01:32:43.250Z,100.00
2022-09-09T01:35:21.420Z,99.72
2022-09-09T01:37:50.086Z,99.72
2022-09-09T01:40:19.164Z,99.19
2022-09-09T01:42:51.071Z,99.18
2022-09-09T01:45:19.664Z,98.86
2022-09-09T01:47:49.056Z,99.45
2022-09-09T01:50:35.190Z,98.98
2022-09-09T01:53:04.892Z,99.40
2022-09-09T01:55:41.440Z,99.11
2022-09-09T01:58:31.377Z,98.99
2022-09-09T02:01:12.296Z,98.96
2022-09-09T02:03:42.876Z,98.80
2022-09-09T02:06:29.609Z,98.33
2022-09-09T02:09:09.481Z,98.45
2022-09-09T02:11:37.968Z,98.96
2022-09-09T02:14:25.720Z,98.61
2022-09-09T02:17:00.172Z,99.15
2022-09-09T02:19:43.160Z,99.30
2022-09-09T02:22:26.199Z,98.97
2022-09-09T02:24:59.417Z,99.33
2022-09-09T02:27:30.474Z,99.34
2022-09-09T02:30:03.049Z,99.40
2022-09-09T02:32:44.507Z,99.83
2022-09-09T02:35:19.481Z,99.74
2022-09-09T02:37:48.693Z,99.76
2022-09-09T02:40:18.570Z,99.89
2022-09-09T02:42:51.684Z,99.50
2022-09-09T02:45:29.390Z,99.84
2022-09-09T02:48:11.564Z,99.76
2022-09-09T02:50:49.261Z,100.00
2022-09-09T02:53:22.948Z,99.67
2022-09-09T02:55:59.464Z,99.54
2022-09-09T02:58:28.236Z,98.71
2022-09-09T03:01:03.908Z,98.37
2022-09-09T03:03:33.633Z,98.13
2022-09-09T03:06:06.670Z,97.94
2022-09-09T03:08:35.207Z,97.62
2022-09-09T03:11:03.589Z,97.66
2022-09-09T03:13:35.334Z,97.19
2022-09-09T03:16:06.649Z,97.24
2022-09-09T03:18:40.536Z,97.50
2022-09-09T03:21:09.340Z,97.58
2022-09-09T03:23:39.219Z,97.90
2022-09-09T03:26:08.252Z,98.01
2022-09-09T03:28:42.676Z,97.31
2022-09-09T03:31:13.026Z,97.63
2022-09-09T03:33:43.421Z,98.14
2022-09-09T03:36:15.019Z,98.20
2022-09-09T03:38:43.304Z,98.20
2022-09-09T03:41:13.747Z,98.19
2022-09-09T03:43:42.843Z,98.67
2022-09-09T03:46:12.738Z,98.56
2022-09-09T03:48:41.341Z,98.31
2022-09-09T03:51:09.546Z,98.46
2022-09-09T03:53:39.092Z,98.89
2022-09-09T03:56:09.185Z,98.51
2022-09-09T03:58:39.004Z,98.97
2022-09-09T04:01:14.366Z,98.83
2022-09-09T04:03:45.611Z,99.39
2022-09-09T04:06:16.032Z,99.14
2022-09-09T04:08:49.489Z,99.15
2022-09-09T04:11:17.908Z,99.29
2022-09-09T04:13:48.015Z,99.12
2022-09-09T04:16:17.810Z,99.42
2022-09-09T04:18:46.650Z,99.37
2022-09-09T04:21:17.101Z,98.92
2022-09-09T04:23:45.299Z,98.96
2022-09-09T04:26:16.325Z,99.10
2022-09-09T04:28:46.675Z,98.73
2022-09-09T04:31:24.446Z,98.71
2022-09-09T04:33:56.020Z,98.72
2022-09-09T04:36:24.795Z,98.88
2022-09-09T04:38:57.002Z,99.15
2022-09-09T04:41:25.595Z,99.04
2022-09-09T04:43:57.962Z,99.12
2022-09-09T04:46:27.752Z,98.91
2022-09-09T04:48:56.000Z,99.29
2022-09-09T04:51:29.214Z,99.20
2022-09-09T04:53:57.855Z,99.18
2022-09-09T04:56:27.854Z,99.13
2022-09-09T04:58:59.415Z,99.22
2022-09-09T05:01:42.104Z,98.37
2022-09-09T05:04:10.599Z,98.44
2022-09-09T05:06:38.903Z,97.98
2022-09-09T05:09:07.560Z,98.53
2022-09-09T05:11:37.690Z,98.40
2022-09-09T05:14:25.047Z,98.59
2022-09-09T05:16:55.131Z,98.49
2022-09-09T05:19:24.889Z,98.57
2022-09-09T05:21:54.701Z,97.57
2022-09-09T05:24:29.470Z,98.27
2022-09-09T05:27:02.601Z,98.05
2022-09-09T05:29:31.154Z,98.30
2022-09-09T05:32:01.090Z,98.65
2022-09-09T05:34:30.154Z,98.83
2022-09-09T05:36:59.464Z,98.09
2022-09-09T05:39:28.461Z,98.20
2022-09-09T05:41:56.663Z,98.00
2022-09-09T05:44:28.563Z,98.13
2022-09-09T05:46:58.507Z,98.00
2022-09-09T05:49:28.270Z,97.67
2022-09-09T05:51:56.924Z,97.48
2022-09-09T05:54:26.235Z,97.29
2022-09-09T05:56:56.620Z,97.37
2022-09-09T05:59:25.505Z,97.23
2022-09-09T06:01:56.647Z,97.34
2022-09-09T06:04:35.160Z,97.14
2022-09-09T06:07:04.184Z,97.10
2022-09-09T06:09:32.671Z,97.56
2022-09-09T06:12:01.298Z,96.96
2022-09-09T06:14:29.723Z,96.89
2022-09-09T06:17:00.984Z,96.96
2022-09-09T06:19:34.433Z,96.94
2022-09-09T06:22:03.414Z,97.27
2022-09-09T06:24:35.243Z,97.76
2022-09-09T06:27:06.313Z,97.59
2022-09-09T06:29:37.099Z,97.26
2022-09-09T06:32:06.021Z,96.36
2022-09-09T06:34:36.511Z,96.36
2022-09-09T06:37:05.729Z,96.12
2022-09-09T06:39:49.283Z,96.00
2022-09-09T06:42:18.012Z,96.31
2022-09-09T06:44:53.243Z,95.49
2022-09-09T06:47:34.600Z,95.30
2022-09-09T06:50:06.339Z,94.88
2022-09-09T06:52:36.363Z,95.25
2022-09-09T06:55:06.320Z,95.49
2022-09-09T06:57:37.933Z,95.09
2022-09-09T07:00:20.957Z,95.59
2022-09-09T07:02:51.959Z,94.73
2022-09-09T07:05:22.220Z,94.12
2022-09-09T07:07:50.483Z,94.68
2022-09-09T07:10:21.247Z,94.77
2022-09-09T07:12:54.055Z,93.54
2022-09-09T07:15:24.437Z,94.50
2022-09-09T07:17:53.096Z,94.17
2022-09-09T07:20:23.013Z,93.82
2022-09-09T07:22:52.052Z,94.05
2022-09-09T07:25:21.882Z,94.57
2022-09-09T07:27:50.564Z,94.00
2022-09-09T07:30:24.271Z,93.98
2022-09-09T07:32:58.102Z,93.15
2022-09-09T07:35:28.808Z,93.17
2022-09-09T07:37:57.088Z,92.61
2022-09-09T07:40:25.724Z,93.30
2022-09-09T07:42:55.150Z,93.29
2022-09-09T07:45:23.858Z,92.45
2022-09-09T07:47:53.682Z,92.26
2022-09-09T07:50:22.398Z,91.17
2022-09-09T07:52:54.409Z,90.89
2022-09-09T07:55:25.101Z,91.05
2022-09-09T07:57:55.008Z,91.19
2022-09-09T08:00:24.625Z,89.99
2022-09-09T08:02:57.075Z,87.59
2022-09-09T08:05:26.023Z,85.94
2022-09-09T08:07:56.001Z,84.85
2022-09-09T08:10:25.101Z,84.11
2022-09-09T08:13:16.845Z,82.82
2022-09-09T08:15:45.500Z,82.99
2022-09-09T08:18:14.972Z,82.10
2022-09-09T08:20:43.375Z,81.75
2022-09-09T08:23:13.259Z,83.60
2022-09-09T08:25:41.761Z,83.59
2022-09-09T08:28:11.085Z,83.87
2022-09-09T08:30:39.925Z,82.80
2022-09-09T08:33:09.092Z,83.76
2022-09-09T08:35:37.391Z,83.41
2022-09-09T08:38:10.690Z,83.67
2022-09-09T08:40:45.995Z,84.92
2022-09-09T08:43:18.601Z,84.25
2022-09-09T08:46:00.997Z,83.34
2022-09-09T08:48:53.869Z,83.21
2022-09-09T08:51:22.624Z,83.43
2022-09-09T08:53:57.655Z,82.37
2022-09-09T08:56:33.325Z,81.58
2022-09-09T08:59:05.000Z,80.04
2022-09-09T09:02:02.590Z,79.96
2022-09-09T09:05:01.114Z,77.90
2022-09-09T09:07:46.838Z,74.79
2022-09-09T09:10:42.068Z,73.56
2022-09-09T09:13:21.988Z,74.45
2022-09-09T09:15:59.954Z,75.17
2022-09-09T09:18:29.835Z,77.70
2022-09-09T09:21:06.242Z,79.37
2022-09-09T09:23:44.524Z,81.81
2022-09-09T09:26:13.453Z,84.06
2022-09-09T09:28:43.951Z,86.19
2022-09-09T09:31:17.326Z,87.40
2022-09-09T09:33:53.732Z,90.09
2022-09-09T09:36:35.042Z,92.55
2022-09-09T09:41:56.291Z,96.70
2022-09-09T09:44:29.260Z,98.03
2022-09-09T09:47:10.797Z,98.57
2022-09-09T09:49:40.585Z,97.50
2022-09-09T09:52:19.552Z,96.86
2022-09-09T09:54:48.048Z,95.45
2022-09-09T09:57:18.662Z,94.22
2022-09-09T09:59:50.323Z,93.26
2022-09-09T10:02:27.713Z,92.35
2022-09-09T10:05:06.431Z,91.31
2022-09-09T10:07:38.323Z,90.04
2022-09-09T10:10:15.349Z,89.74
2022-09-09T10:13:00.322Z,90.55
2022-09-09T10:15:46.637Z,85.98
2022-09-09T10:18:40.408Z,85.11
2022-09-09T10:21:44.376Z,84.47
2022-09-09T10:25:07.075Z,82.28
2022-09-09T10:27:45.245Z,79.13
2022-09-09T10:30:20.148Z,79.25
2022-09-09T10:32:56.751Z,79.17
2022-09-09T10:35:34.358Z,76.54
2022-09-09T10:38:19.697Z,76.76
2022-09-09T10:41:20.237Z,78.34
2022-09-09T10:44:36.555Z,78.43
2022-09-09T10:47:21.942Z,77.13
2022-09-09T10:50:24.335Z,77.08
2022-09-09T10:53:04.395Z,74.71
2022-09-09T10:55:43.116Z,76.12
2022-09-09T10:58:20.264Z,76.74
2022-09-09T11:00:57.888Z,74.71
2022-09-09T11:03:32.044Z,74.66
2022-09-09T11:06:06.967Z,74.11
2022-09-09T11:08:40.065Z,72.87
2022-09-09T11:11:17.761Z,73.90
2022-09-09T11:13:52.542Z,75.61
2022-09-09T11:16:30.929Z,74.86
2022-09-09T11:19:06.931Z,75.13
2022-09-09T11:21:43.035Z,73.50
2022-09-09T11:24:18.163Z,75.65
2022-09-09T11:26:53.505Z,73.55
2022-09-09T11:30:27.177Z,74.21
2022-09-09T11:33:50.242Z,70.93
2022-09-09T11:36:57.628Z,76.55
2022-09-09T11:39:55.777Z,75.77
2022-09-09T11:42:26.865Z,72.61
2022-09-09T11:44:55.737Z,73.70
2022-09-09T11:47:30.869Z,74.96
2022-09-09T11:50:13.246Z,76.67
2022-09-09T11:52:46.956Z,77.57
2022-09-09T11:55:30.563Z,76.92
2022-09-09T11:58:01.278Z,76.86
2022-09-09T12:00:39.077Z,76.41
2022-09-09T12:03:09.976Z,76.30
2022-09-09T12:05:41.659Z,74.19
2022-09-09T12:08:13.753Z,75.48
2022-09-09T12:10:42.771Z,73.52
2022-09-09T12:13:20.183Z,71.41
2022-09-09T12:15:54.602Z,73.96
2022-09-09T12:18:26.702Z,73.36
2022-09-09T12:21:04.602Z,74.90
2022-09-09T12:23:48.073Z,75.58
2022-09-09T12:26:32.432Z,74.55
2022-09-09T12:29:14.615Z,71.79
2022-09-09T12:31:50.779Z,73.39
2022-09-09T12:34:33.540Z,72.85
2022-09-09T12:37:08.285Z,73.53
2022-09-09T12:39:43.043Z,72.65
2022-09-09T12:42:20.874Z,75.33
2022-09-09T12:44:58.403Z,77.08
2022-09-09T12:47:41.481Z,77.73
2022-09-09T12:50:20.928Z,79.05
2022-09-09T12:52:51.567Z,78.19
2022-09-09T12:55:26.225Z,79.63
2022-09-09T12:57:54.514Z,80.64
2022-09-09T13:00:26.146Z,80.84
2022-09-09T13:02:57.078Z,81.57
2022-09-09T13:05:27.524Z,80.66
2022-09-09T13:08:04.012Z,84.97
2022-09-09T13:10:52.894Z,88.25
2022-09-09T13:13:27.553Z,90.80
2022-09-09T13:15:59.113Z,93.03
2022-09-09T13:18:32.488Z,94.78
2022-09-09T13:21:01.443Z,95.99
2022-09-09T13:23:33.286Z,96.92
2022-09-09T13:26:08.602Z,97.21
2022-09-09T13:28:37.084Z,97.50
2022-09-09T13:31:08.006Z,97.81
2022-09-09T13:33:38.530Z,99.42
2022-09-09T13:36:10.411Z,100.00
2022-09-09T13:38:42.806Z,100.00
2022-09-09T13:41:13.584Z,100.00
2022-09-09T13:43:48.229Z,100.00
2022-09-09T13:46:31.087Z,99.79
2022-09-09T13:49:00.409Z,98.04
2022-09-09T13:51:38.079Z,97.67
2022-09-09T13:54:08.172Z,96.24
2022-09-09T13:56:39.857Z,95.64
2022-09-09T13:59:13.097Z,95.79
2022-09-09T14:01:41.863Z,96.51
2022-09-09T14:04:11.475Z,95.78
2022-09-09T14:06:41.448Z,95.17
2022-09-09T14:09:13.964Z,93.91
2022-09-09T14:11:44.456Z,93.22
2022-09-09T14:14:12.661Z,90.94
2022-09-09T14:16:40.949Z,89.21
2022-09-09T14:19:10.446Z,88.79
2022-09-09T14:21:38.970Z,87.03
2022-09-09T14:24:08.233Z,88.46
2022-09-09T14:26:36.443Z,90.09
2022-09-09T14:29:06.011Z,90.53
2022-09-09T14:31:34.635Z,91.31
2022-09-09T14:34:03.172Z,90.51
2022-09-09T14:36:31.411Z,90.36
2022-09-09T14:39:00.011Z,89.99
2022-09-09T14:41:30.431Z,91.28
2022-09-09T14:43:59.571Z,92.17
2022-09-09T14:46:29.551Z,90.95
2022-09-09T14:48:57.763Z,90.23
2022-09-09T14:51:28.232Z,89.36
2022-09-09T14:53:59.181Z,90.33
2022-09-09T14:56:30.508Z,90.12
2022-09-09T14:59:01.677Z,88.34
2022-09-09T15:01:33.047Z,88.66
2022-09-09T15:04:03.872Z,89.50
2022-09-09T15:06:34.928Z,90.11
2022-09-09T15:09:04.040Z,90.86
2022-09-09T15:11:38.630Z,91.34
2022-09-09T15:14:07.934Z,91.91
2022-09-09T15:16:38.036Z,92.08
2022-09-09T15:19:06.412Z,91.51
2022-09-09T15:21:37.808Z,90.80
2022-09-09T15:24:08.203Z,89.91
2022-09-09T15:26:39.476Z,89.88
2022-09-09T15:29:08.982Z,90.02
2022-09-09T15:31:38.853Z,90.16
2022-09-09T15:34:09.612Z,91.26
2022-09-09T15:36:39.301Z,91.72
2022-09-09T15:39:10.591Z,92.74
2022-09-09T15:41:39.267Z,91.68
2022-09-09T15:44:08.135Z,92.00
2022-09-09T15:46:39.275Z,92.25
2022-09-09T15:49:11.460Z,90.94
2022-09-09T15:51:43.599Z,91.33
2022-09-09T15:54:14.203Z,88.79
2022-09-09T15:56:43.624Z,88.07
2022-09-09T15:59:12.202Z,86.72
2022-09-09T16:01:43.086Z,86.43
2022-09-09T16:04:12.215Z,85.79
2022-09-09T16:06:40.950Z,86.73
2022-09-09T16:09:10.959Z,87.05
2022-09-09T16:11:40.867Z,87.72
2022-09-09T16:14:09.630Z,88.54
2022-09-09T16:16:38.228Z,88.15
2022-09-09T16:19:10.546Z,88.84
2022-09-09T16:21:41.829Z,88.29
2022-09-09T16:24:12.810Z,87.83
2022-09-09T16:26:43.928Z,88.67
2022-09-09T16:29:12.555Z,88.54
2022-09-09T16:31:41.498Z,88.97
2022-09-09T16:34:11.999Z,88.92
2022-09-09T16:36:42.852Z,89.01
2022-09-09T16:39:14.194Z,88.92
2022-09-09T16:41:46.056Z,89.22
2022-09-09T16:44:17.996Z,89.14
2022-09-09T16:46:49.531Z,89.55
2022-09-09T16:49:19.237Z,88.57
2022-09-09T16:51:49.552Z,88.88
2022-09-09T16:54:19.294Z,89.37
2022-09-09T16:56:50.003Z,89.25
2022-09-09T16:59:22.898Z,89.13
2022-09-09T17:01:53.376Z,88.83
2022-09-09T17:04:27.225Z,88.93
2022-09-09T17:06:56.837Z,88.63
2022-09-09T17:09:29.728Z,89.04
2022-09-09T17:11:58.161Z,89.79
2022-09-09T17:14:26.648Z,89.71
2022-09-09T17:16:54.878Z,89.92
2022-09-09T17:19:24.445Z,90.04
2022-09-09T17:24:41.368Z,90.51
2022-09-09T17:27:10.023Z,90.48
2022-09-09T17:29:38.486Z,90.33
2022-09-09T17:32:08.087Z,90.43
2022-09-09T17:34:38.863Z,90.73
2022-09-09T17:37:07.892Z,91.04
2022-09-09T17:39:36.547Z,91.29
2022-09-09T17:42:05.202Z,90.97
2022-09-09T17:44:34.236Z,91.37
2022-09-09T17:47:04.884Z,91.01
2022-09-09T17:49:33.042Z,90.49
2022-09-09T17:52:02.857Z,89.66
2022-09-09T17:54:31.053Z,89.27
2022-09-09T17:57:00.588Z,92.16
2022-09-09T17:59:29.130Z,94.39
2022-09-09T18:01:57.952Z,95.55
2022-09-09T18:04:26.756Z,97.06
2022-09-09T18:06:55.580Z,98.46
2022-09-09T18:09:27.480Z,99.03
2022-09-09T18:12:00.193Z,99.73
2022-09-09T18:14:32.045Z,100.00
2022-09-09T18:17:01.476Z,100.00
2022-09-09T18:19:32.815Z,100.00
2022-09-09T18:22:02.771Z,100.00
2022-09-09T18:24:33.348Z,100.00
2022-09-09T18:27:01.975Z,100.00
2022-09-09T18:29:31.065Z,100.00
2022-09-09T18:31:59.606Z,100.00
2022-09-09T18:34:30.097Z,100.00
2022-09-09T18:36:58.722Z,100.00
2022-09-09T18:39:29.708Z,100.00
2022-09-09T18:42:01.727Z,100.00
2022-09-09T18:44:33.239Z,100.00
2022-09-09T18:47:03.406Z,100.00
2022-09-09T18:49:33.121Z,100.00
2022-09-09T18:52:02.715Z,100.00
2022-09-09T18:54:33.382Z,100.00
2022-09-09T18:57:03.487Z,100.00
2022-09-09T18:59:32.568Z,100.00
2022-09-09T19:02:00.785Z,100.00
2022-09-09T19:04:29.643Z,100.00
2022-09-09T19:06:58.665Z,100.00
2022-09-09T19:09:29.519Z,100.00
2022-09-09T19:11:58.183Z,100.00
2022-09-09T19:14:28.155Z,100.00
2022-09-09T19:16:56.476Z,100.00
2022-09-09T19:19:27.860Z,100.00
2022-09-09T19:21:57.490Z,100.00
2022-09-09T19:24:28.340Z,100.00
2022-09-09T19:27:01.610Z,100.00
2022-09-09T19:29:34.452Z,100.00
2022-09-09T19:32:49.660Z,100.00
2022-09-09T19:34:52.241Z,100.00
2022-09-09T19:37:20.981Z,100.00
2022-09-09T19:39:50.578Z,100.00
2022-09-09T19:42:18.994Z,100.00
2022-09-09T19:44:50.073Z,100.00
2022-09-09T19:47:19.692Z,100.00
2022-09-09T19:49:48.234Z,100.00
2022-09-09T19:52:17.432Z,100.00
2022-09-09T19:54:46.623Z,100.00
2022-09-09T19:57:16.058Z,100.00
2022-09-09T19:59:44.817Z,100.00
2022-09-09T20:02:16.274Z,100.00
2022-09-09T20:04:45.123Z,100.00
2022-09-09T20:07:14.746Z,100.00
2022-09-09T20:09:43.380Z,100.00
2022-09-09T20:12:12.152Z,100.00
2022-09-09T20:14:40.715Z,100.00
2022-09-09T20:17:09.963Z,100.00
2022-09-09T20:19:40.504Z,100.00
2022-09-09T20:22:09.128Z,100.00
2022-09-09T20:24:37.978Z,100.00
2022-09-09T20:27:08.039Z,100.00
2022-09-09T20:29:37.101Z,100.00
2022-09-09T20:32:06.719Z,100.00
2022-09-09T20:34:35.257Z,100.00
2022-09-09T20:37:05.838Z,100.00
2022-09-09T20:39:35.552Z,100.00
2022-09-09T20:42:04.279Z,100.00
2022-09-09T20:44:33.099Z,100.00
2022-09-09T20:47:06.373Z,100.00
2022-09-09T20:49:36.049Z,100.00
2022-09-09T20:52:06.836Z,100.00
2022-09-09T20:54:35.865Z,100.00
2022-09-09T20:57:04.130Z,100.00
2022-09-09T20:59:32.460Z,100.00
2022-09-09T21:02:01.546Z,100.00
2022-09-09T21:04:31.172Z,100.00
2022-09-09T21:06:59.435Z,100.00
2022-09-09T21:09:29.007Z,100.00
2022-09-09T21:11:57.220Z,100.00
2022-09-09T21:14:25.591Z,100.00
2022-09-09T21:16:54.395Z,100.00
2022-09-09T21:19:22.895Z,100.00
2022-09-09T21:21:51.264Z,100.00
2022-09-09T21:24:19.687Z,100.00
2022-09-09T21:26:49.385Z,100.00
2022-09-09T21:29:17.576Z,100.00
2022-09-09T21:31:46.403Z,100.00
2022-09-09T21:34:15.557Z,100.00
2022-09-09T21:36:44.107Z,100.00
2022-09-09T21:39:12.398Z,100.00
2022-09-09T21:41:41.000Z,100.00
2022-09-09T21:44:14.353Z,100.00
2022-09-09T21:46:43.812Z,100.00
2022-09-09T21:49:12.155Z,100.00
2022-09-09T21:51:40.771Z,100.00
2022-09-09T21:54:09.363Z,100.00
2022-09-09T21:56:38.005Z,100.00
2022-09-09T21:59:06.248Z,100.00
2022-09-09T22:01:35.969Z,100.00
2022-09-09T22:04:04.607Z,100.00
2022-09-09T22:06:33.793Z,100.00
2022-09-09T22:09:03.405Z,100.00
2022-09-09T22:11:32.092Z,100.00
2022-09-09T22:14:00.350Z,100.00
2022-09-09T22:16:28.568Z,100.00
2022-09-09T22:19:01.257Z,100.00
2022-09-09T22:21:33.201Z,100.00
2022-09-09T22:24:04.204Z,100.00
2022-09-09T22:26:36.052Z,100.00
2022-09-09T22:29:05.600Z,100.00
2022-09-09T22:31:36.082Z,100.00
2022-09-09T22:34:06.189Z,100.00
2022-09-09T22:36:34.464Z,100.00
2022-09-09T22:39:02.720Z,100.00
2022-09-09T22:41:31.994Z,100.00
2022-09-09T22:44:00.236Z,100.00
2022-09-09T22:46:28.500Z,100.00
2022-09-09T22:48:57.042Z,100.00
2022-09-09T22:51:28.867Z,100.00
2022-09-09T22:53:57.764Z,100.00
2022-09-09T22:56:26.332Z,100.00
2022-09-09T22:58:56.789Z,100.00
2022-09-09T23:01:27.539Z,100.00
2022-09-09T23:03:59.514Z,100.00
2022-09-09T23:06:31.700Z,100.00
2022-09-09T23:09:02.549Z,100.00
2022-09-09T23:11:34.884Z,100.00
2022-09-09T23:14:06.448Z,100.00
2022-09-09T23:16:39.855Z,100.00
2022-09-09T23:19:10.852Z,100.00
2022-09-09T23:21:42.092Z,100.00
2022-09-09T23:24:12.896Z,100.00
2022-09-09T23:26:41.657Z,100.00
2022-09-09T23:29:14.060Z,100.00
2022-09-09T23:31:45.041Z,100.00
2022-09-09T23:34:13.852Z,100.00
2022-09-09T23:36:43.412Z,100.00
2022-09-09T23:39:14.129Z,100.00
2022-09-09T23:41:42.677Z,100.00
2022-09-09T23:44:12.749Z,100.00
2022-09-09T23:46:41.637Z,100.00
2022-09-09T23:49:10.563Z,100.00
2022-09-09T23:51:39.396Z,100.00
2022-09-09T23:54:09.927Z,100.00
2022-09-09T23:56:42.270Z,100.00
2022-09-09T23:59:10.649Z,100.00
